CheckWX is a tool to help pilots better visualize weather data.  It is not intended as a substitute for an official pre-flight weather briefing.

06:22:17 UTC

HEMA METAR
Marsa Alam International Airport
Marsa Alam, Egypt
Current

1 hour ago

HEMA 230500Z 32015KT CAVOK 18/04 Q1017 NOSIG
Observed
Apr-23 @ 05:00 UTC
Wind
  • 320° at 15 KTS
Visibility
10,000+ meters
Flight Rules
VFR
Cloud Levels
  • Clear skies
Temperature
18°C / 64°F
Dewpoint
C / 39°F
Humidity
40%
Altimeter
30.03" Hg
Pressure
1016.92 hPa
Previous

2 hours ago

HEMA 230400Z 31016KT CAVOK 17/04 Q1016 NOSIG
Observed
Apr-23 @ 04:00 UTC
Wind
  • 310° at 16 KTS
Visibility
10,000+ meters
Flight Rules
VFR
Cloud Levels
  • Clear skies
Temperature
17°C / 63°F
Dewpoint
C / 39°F
Humidity
42%
Altimeter
30" Hg
Pressure
1015.92 hPa
Previous

3 hours ago

HEMA 230300Z 31014KT CAVOK 18/04 Q1016 NOSIG
Observed
Apr-23 @ 03:00 UTC
Wind
  • 310° at 14 KTS
Visibility
10,000+ meters
Flight Rules
VFR
Cloud Levels
  • Clear skies
Temperature
18°C / 64°F
Dewpoint
C / 39°F
Humidity
40%
Altimeter
30" Hg
Pressure
1015.92 hPa